createdAt,value
2023-05-23T00:01:55.079Z,52.60
2023-05-23T00:04:22.196Z,52.80
2023-05-23T00:06:50.530Z,52.70
2023-05-23T00:09:17.718Z,52.80
2023-05-23T00:11:45.590Z,52.70
2023-05-23T00:14:16.012Z,52.90
2023-05-23T00:16:45.579Z,53.40
2023-05-23T00:19:15.207Z,53.40
2023-05-23T00:21:48.536Z,53.00
2023-05-23T00:24:18.546Z,53.00
2023-05-23T00:26:46.493Z,53.00
2023-05-23T00:29:16.475Z,53.00
2023-05-23T00:31:47.561Z,53.10
2023-05-23T00:34:18.135Z,53.10
2023-05-23T00:36:47.583Z,53.20
2023-05-23T00:39:19.519Z,53.20
2023-05-23T00:41:52.705Z,53.20
2023-05-23T00:44:21.882Z,53.70
2023-05-23T00:46:56.642Z,53.30
2023-05-23T00:49:28.067Z,54.10
2023-05-23T00:51:55.514Z,53.50
2023-05-23T00:54:31.072Z,53.50
2023-05-23T00:56:58.849Z,54.10
2023-05-23T00:59:26.730Z,53.70
2023-05-23T01:01:57.197Z,53.70
2023-05-23T01:04:26.574Z,53.80
2023-05-23T01:06:56.388Z,53.70
2023-05-23T01:09:25.921Z,53.80
2023-05-23T01:12:10.973Z,53.80
2023-05-23T01:14:59.328Z,54.30
2023-05-23T01:17:41.930Z,54.50
2023-05-23T01:20:19.683Z,54.00
2023-05-23T01:23:31.514Z,54.20
2023-05-23T01:26:26.266Z,54.50
2023-05-23T01:29:05.930Z,54.40
2023-05-23T01:31:36.689Z,53.90
2023-05-23T01:34:04.592Z,53.70
2023-05-23T01:36:36.046Z,53.10
2023-05-23T01:39:03.408Z,53.50
2023-05-23T01:41:30.340Z,53.50
2023-05-23T01:43:57.457Z,53.60
2023-05-23T01:46:26.822Z,53.70
2023-05-23T01:48:55.975Z,53.90
2023-05-23T01:51:23.820Z,54.00
2023-05-23T01:53:51.523Z,54.10
2023-05-23T01:56:20.380Z,54.10
2023-05-23T01:58:47.697Z,54.00
2023-05-23T02:01:15.752Z,54.10
2023-05-23T02:03:42.825Z,54.20
2023-05-23T02:06:10.862Z,54.20
2023-05-23T02:08:41.192Z,54.30
2023-05-23T02:11:08.939Z,54.30
2023-05-23T02:13:35.808Z,54.20
2023-05-23T02:16:03.978Z,54.30
2023-05-23T02:18:30.941Z,54.30
2023-05-23T02:20:57.849Z,54.40
2023-05-23T02:23:24.779Z,54.50
2023-05-23T02:25:51.665Z,54.60
2023-05-23T02:28:18.586Z,54.60
2023-05-23T02:30:46.118Z,54.60
2023-05-23T02:33:13.292Z,54.70
2023-05-23T02:35:40.637Z,54.60
2023-05-23T02:38:07.781Z,54.70
2023-05-23T02:40:34.611Z,54.80
2023-05-23T02:43:01.535Z,54.80
2023-05-23T02:45:28.398Z,54.80
2023-05-23T02:47:55.344Z,54.90
2023-05-23T02:50:22.286Z,54.90
2023-05-23T02:52:49.136Z,55.00
2023-05-23T02:55:16.190Z,55.00
2023-05-23T02:57:43.305Z,55.10
2023-05-23T03:00:12.001Z,55.20
2023-05-23T03:02:39.057Z,55.30
2023-05-23T03:05:06.830Z,55.30
2023-05-23T03:07:33.914Z,55.30
2023-05-23T03:10:01.162Z,55.40
2023-05-23T03:12:29.275Z,55.60
2023-05-23T03:14:56.223Z,55.70
2023-05-23T03:17:26.124Z,55.80
2023-05-23T03:19:53.008Z,56.10
2023-05-23T03:22:20.047Z,55.90
2023-05-23T03:24:47.155Z,56.10
2023-05-23T03:27:14.029Z,56.20
2023-05-23T03:29:41.085Z,56.20
2023-05-23T03:32:08.202Z,56.40
2023-05-23T03:34:36.586Z,56.50
2023-05-23T03:37:04.206Z,56.60
2023-05-23T03:39:31.386Z,56.60
2023-05-23T03:41:58.253Z,56.70
2023-05-23T03:44:25.717Z,56.80
2023-05-23T03:46:53.089Z,56.90
2023-05-23T03:49:20.243Z,57.00
2023-05-23T03:51:47.109Z,57.00
2023-05-23T03:54:13.952Z,57.00
2023-05-23T03:56:40.871Z,57.20
2023-05-23T03:59:07.719Z,57.30
2023-05-23T04:01:37.324Z,57.40
2023-05-23T04:04:04.944Z,57.40
2023-05-23T04:06:31.925Z,57.40
2023-05-23T04:08:58.818Z,57.50
2023-05-23T04:11:25.717Z,57.50
2023-05-23T04:13:53.371Z,57.60
2023-05-23T04:16:22.686Z,57.60
2023-05-23T04:18:50.127Z,57.70
2023-05-23T04:21:17.021Z,57.80
2023-05-23T04:23:43.920Z,57.90
2023-05-23T04:26:11.677Z,58.00
2023-05-23T04:28:39.956Z,58.00
2023-05-23T04:31:06.866Z,58.10
2023-05-23T04:33:34.259Z,58.10
2023-05-23T04:36:02.578Z,58.20
2023-05-23T04:38:29.486Z,58.30
2023-05-23T04:40:58.031Z,58.30
2023-05-23T04:43:26.638Z,58.30
2023-05-23T04:45:54.365Z,58.40
2023-05-23T04:48:21.900Z,58.40
2023-05-23T04:50:51.171Z,58.50
2023-05-23T04:53:18.511Z,58.60
2023-05-23T04:55:45.840Z,58.60
2023-05-23T04:58:13.071Z,58.70
2023-05-23T05:00:40.450Z,58.70
2023-05-23T05:03:09.920Z,58.80
2023-05-23T05:05:37.297Z,58.90
2023-05-23T05:08:04.322Z,59.20
2023-05-23T05:10:31.221Z,59.50
2023-05-23T05:12:58.490Z,59.40
2023-05-23T05:15:25.964Z,59.40
2023-05-23T05:17:52.995Z,59.50
2023-05-23T05:20:19.893Z,59.40
2023-05-23T05:22:46.897Z,59.40
2023-05-23T05:25:16.739Z,59.40
2023-05-23T05:27:43.855Z,59.60
2023-05-23T05:30:11.917Z,59.80
2023-05-23T05:32:38.851Z,59.40
2023-05-23T05:35:07.834Z,59.30
2023-05-23T05:37:34.798Z,59.20
2023-05-23T05:40:06.557Z,59.30
2023-05-23T05:42:33.539Z,59.10
2023-05-23T05:45:00.556Z,59.10
2023-05-23T05:47:27.447Z,59.10
2023-05-23T05:49:54.293Z,59.10
2023-05-23T05:52:21.208Z,59.10
2023-05-23T05:54:48.134Z,59.20
2023-05-23T05:57:15.019Z,59.10
2023-05-23T05:59:41.886Z,59.00
2023-05-23T06:02:09.209Z,59.00
2023-05-23T06:04:36.307Z,59.00
2023-05-23T06:07:03.299Z,59.10
2023-05-23T06:09:30.284Z,59.10
2023-05-23T06:11:57.173Z,59.20
2023-05-23T06:14:24.108Z,59.20
2023-05-23T06:16:51.536Z,59.20
2023-05-23T06:19:18.503Z,59.20
2023-05-23T06:21:45.459Z,59.20
2023-05-23T06:24:12.303Z,59.70
2023-05-23T06:26:39.169Z,59.10
2023-05-23T06:29:06.044Z,58.90
2023-05-23T06:31:32.949Z,58.80
2023-05-23T06:34:01.636Z,58.80
2023-05-23T06:36:28.541Z,58.80
2023-05-23T06:38:55.429Z,58.60
2023-05-23T06:41:22.751Z,58.50
2023-05-23T06:43:50.879Z,58.60
2023-05-23T06:46:17.784Z,58.50
2023-05-23T06:48:44.755Z,58.50
2023-05-23T06:51:11.672Z,58.50
2023-05-23T06:53:38.547Z,58.50
2023-05-23T06:56:05.952Z,58.30
2023-05-23T06:58:32.792Z,58.10
2023-05-23T07:00:59.764Z,58.10
2023-05-23T07:03:26.777Z,57.90
2023-05-23T07:05:53.747Z,57.80
2023-05-23T07:08:20.716Z,57.80
2023-05-23T07:10:47.702Z,57.80
2023-05-23T07:13:14.623Z,58.00
2023-05-23T07:15:41.494Z,57.90
2023-05-23T07:18:08.483Z,57.60
2023-05-23T07:20:35.496Z,57.50
2023-05-23T07:23:02.421Z,57.20
2023-05-23T07:25:29.257Z,57.30
2023-05-23T07:27:56.215Z,57.20
2023-05-23T07:30:23.030Z,57.20
2023-05-23T07:32:49.935Z,57.20
2023-05-23T07:35:17.022Z,57.40
2023-05-23T07:37:44.916Z,57.10
2023-05-23T07:40:11.903Z,56.80
2023-05-23T07:42:38.759Z,56.90
2023-05-23T07:45:06.269Z,56.10
2023-05-23T07:47:33.158Z,56.00
2023-05-23T07:50:02.262Z,56.20
2023-05-23T07:52:33.056Z,56.30
2023-05-23T07:55:00.772Z,56.00
2023-05-23T07:57:27.911Z,55.90
2023-05-23T07:59:54.940Z,55.80
2023-05-23T08:02:21.888Z,55.40
2023-05-23T08:04:50.002Z,55.60
2023-05-23T08:07:19.551Z,55.60
2023-05-23T08:09:46.639Z,55.50
2023-05-23T08:12:13.524Z,55.60
2023-05-23T08:14:50.808Z,55.50
2023-05-23T08:17:19.000Z,55.30
2023-05-23T08:19:46.153Z,55.20
2023-05-23T08:22:13.227Z,55.20
2023-05-23T08:24:40.245Z,55.30
2023-05-23T08:27:08.159Z,55.10
2023-05-23T08:29:38.494Z,55.00
2023-05-23T08:32:05.696Z,54.60
2023-05-23T08:34:33.130Z,54.50
2023-05-23T08:37:00.154Z,54.40
2023-05-23T08:39:27.155Z,54.60
2023-05-23T08:41:54.424Z,54.60
2023-05-23T08:44:21.377Z,54.90
2023-05-23T08:46:53.112Z,54.90
2023-05-23T08:49:22.838Z,54.90
2023-05-23T08:51:57.466Z,54.90
2023-05-23T08:54:25.500Z,54.90
2023-05-23T08:56:52.682Z,54.90
2023-05-23T08:59:21.076Z,54.80
2023-05-23T09:01:49.740Z,54.60
2023-05-23T09:04:17.257Z,54.70
2023-05-23T09:06:44.150Z,54.80
2023-05-23T09:09:11.097Z,54.70
2023-05-23T09:11:38.248Z,54.70
2023-05-23T09:14:08.129Z,54.80
2023-05-23T09:16:35.835Z,54.70
2023-05-23T09:19:14.298Z,54.60
2023-05-23T09:21:45.395Z,54.70
2023-05-23T09:24:12.898Z,54.70
2023-05-23T09:26:40.159Z,54.70
2023-05-23T09:29:07.764Z,54.40
2023-05-23T09:31:58.405Z,54.00
2023-05-23T09:34:25.215Z,53.70
2023-05-23T09:36:55.597Z,53.80
2023-05-23T09:39:22.580Z,53.50
2023-05-23T09:41:50.078Z,53.80
2023-05-23T09:44:24.154Z,53.70
2023-05-23T09:46:54.400Z,53.90
2023-05-23T09:49:36.071Z,54.50
2023-05-23T09:52:03.488Z,54.30
2023-05-23T09:54:30.391Z,54.10
2023-05-23T09:57:01.650Z,53.70
2023-05-23T09:59:31.691Z,53.60
2023-05-23T10:02:02.827Z,53.50
2023-05-23T10:04:34.349Z,53.20
2023-05-23T10:07:22.143Z,53.30
2023-05-23T10:10:03.526Z,53.10
2023-05-23T10:12:46.888Z,52.90
2023-05-23T10:15:17.456Z,53.30
2023-05-23T10:18:03.892Z,53.40
2023-05-23T10:20:34.417Z,53.30
2023-05-23T10:23:02.906Z,53.50
2023-05-23T10:25:30.474Z,53.80
2023-05-23T10:28:01.595Z,53.80
2023-05-23T10:30:30.333Z,53.50
2023-05-23T10:32:59.260Z,53.40
2023-05-23T10:35:30.435Z,53.30
2023-05-23T10:38:21.377Z,53.80
2023-05-23T10:41:22.123Z,53.60
2023-05-23T10:44:05.044Z,53.00
2023-05-23T10:46:55.589Z,52.90
2023-05-23T10:49:37.986Z,52.30
2023-05-23T10:52:07.374Z,52.10
2023-05-23T10:54:50.339Z,51.80
2023-05-23T10:57:20.478Z,50.80
2023-05-23T10:59:51.021Z,51.10
2023-05-23T11:02:28.851Z,51.00
2023-05-23T11:05:22.415Z,51.40
2023-05-23T11:08:08.953Z,50.50
2023-05-23T11:11:02.652Z,50.70
2023-05-23T11:13:57.017Z,50.90
2023-05-23T11:16:42.442Z,51.00
2023-05-23T11:19:18.550Z,50.80
2023-05-23T11:21:54.114Z,51.00
2023-05-23T11:24:21.573Z,51.40
2023-05-23T11:27:01.126Z,50.90
2023-05-23T11:29:31.488Z,49.70
2023-05-23T11:31:58.557Z,50.30
2023-05-23T11:34:29.752Z,51.30
2023-05-23T11:36:57.196Z,49.60
2023-05-23T11:39:24.335Z,49.60
2023-05-23T11:42:04.563Z,49.00
2023-05-23T11:44:31.449Z,47.70
2023-05-23T11:47:06.770Z,48.60
2023-05-23T11:49:38.619Z,48.30
2023-05-23T11:52:07.372Z,47.70
2023-05-23T11:54:34.352Z,48.10
2023-05-23T11:57:02.627Z,48.00
2023-05-23T11:59:29.668Z,47.50
2023-05-23T12:01:56.588Z,47.50
2023-05-23T12:04:27.109Z,47.50
2023-05-23T12:06:54.974Z,47.30
2023-05-23T12:09:21.904Z,46.80
2023-05-23T12:11:49.901Z,46.70
2023-05-23T12:14:18.296Z,46.80
2023-05-23T12:16:49.037Z,46.40
2023-05-23T12:19:17.605Z,46.20
2023-05-23T12:21:49.283Z,46.00
2023-05-23T12:24:23.391Z,45.50
2023-05-23T12:26:55.944Z,44.80
2023-05-23T12:29:34.980Z,45.40
2023-05-23T12:32:08.112Z,44.00
2023-05-23T12:34:35.034Z,44.80
2023-05-23T12:39:36.755Z,44.80
2023-05-23T12:42:11.061Z,44.10
2023-05-23T12:44:41.302Z,43.40
2023-05-23T12:47:08.396Z,44.20
2023-05-23T12:49:35.539Z,44.20
2023-05-23T12:52:02.644Z,44.10
2023-05-23T12:54:29.540Z,44.40
2023-05-23T12:56:56.458Z,44.50
2023-05-23T12:59:23.696Z,44.50
2023-05-23T13:01:50.674Z,44.70
2023-05-23T13:04:17.802Z,44.60
2023-05-23T13:06:44.828Z,44.40
2023-05-23T13:09:11.737Z,44.30
2023-05-23T13:11:38.984Z,44.80
2023-05-23T13:14:06.517Z,45.00
2023-05-23T13:16:33.507Z,44.90
2023-05-23T13:19:00.716Z,45.10
2023-05-23T13:21:27.758Z,44.80
2023-05-23T13:23:55.022Z,44.70
2023-05-23T13:26:23.080Z,44.60
2023-05-23T13:28:50.118Z,44.50
2023-05-23T13:31:17.160Z,44.70
2023-05-23T13:33:44.052Z,45.30
2023-05-23T13:36:10.939Z,45.20
2023-05-23T13:38:38.008Z,45.30
2023-05-23T13:41:05.150Z,44.60
2023-05-23T13:43:32.074Z,44.30
2023-05-23T13:45:59.053Z,43.40
2023-05-23T13:48:26.060Z,42.80
2023-05-23T13:50:53.133Z,42.10
2023-05-23T13:53:21.510Z,42.00
2023-05-23T13:55:48.485Z,42.30
2023-05-23T13:58:15.476Z,41.50
2023-05-23T14:00:43.071Z,41.50
2023-05-23T14:03:10.539Z,41.80
2023-05-23T14:05:38.771Z,41.90
2023-05-23T14:08:06.016Z,41.90
2023-05-23T14:10:33.630Z,41.50
2023-05-23T14:13:00.758Z,41.40
2023-05-23T14:15:28.374Z,41.80
2023-05-23T14:17:56.042Z,41.90
2023-05-23T14:20:24.014Z,42.40
2023-05-23T14:22:51.758Z,42.80
2023-05-23T14:25:19.514Z,43.60
2023-05-23T14:27:46.613Z,44.10
2023-05-23T14:30:13.928Z,44.80
2023-05-23T14:32:41.211Z,45.40
2023-05-23T14:35:11.819Z,45.90
2023-05-23T14:37:39.147Z,46.80
2023-05-23T14:40:09.951Z,46.30
2023-05-23T14:42:37.082Z,47.50
2023-05-23T14:45:04.859Z,47.80
2023-05-23T14:47:32.641Z,48.10
2023-05-23T14:50:00.229Z,48.60
2023-05-23T14:52:27.520Z,48.90
2023-05-23T14:54:54.572Z,48.90
2023-05-23T14:57:21.589Z,48.70
2023-05-23T14:59:48.577Z,48.80
2023-05-23T15:02:16.123Z,48.70
2023-05-23T15:04:43.191Z,48.70
2023-05-23T15:07:10.164Z,48.80
2023-05-23T15:09:37.578Z,49.10
2023-05-23T15:12:07.303Z,49.50
2023-05-23T15:14:34.319Z,49.60
2023-05-23T15:17:07.981Z,49.70
2023-05-23T15:19:39.319Z,49.90
2023-05-23T15:22:06.320Z,50.60
2023-05-23T15:24:35.008Z,50.40
2023-05-23T15:27:15.659Z,50.70
2023-05-23T15:29:46.319Z,51.00
2023-05-23T15:32:13.467Z,51.30
2023-05-23T15:34:40.461Z,51.60
2023-05-23T15:37:07.536Z,51.80
2023-05-23T15:39:34.585Z,52.10
2023-05-23T15:42:02.033Z,52.50
2023-05-23T15:44:29.322Z,52.50
2023-05-23T15:46:56.426Z,52.60
2023-05-23T15:49:26.938Z,52.80
2023-05-23T15:51:55.322Z,52.90
2023-05-23T15:54:22.856Z,53.10
2023-05-23T15:56:49.918Z,53.70
2023-05-23T15:59:16.906Z,53.40
2023-05-23T16:01:44.154Z,52.60
2023-05-23T16:04:11.441Z,52.70
2023-05-23T16:06:39.656Z,51.60
2023-05-23T16:09:06.903Z,51.30
2023-05-23T16:11:33.906Z,50.90
2023-05-23T16:14:00.963Z,50.40
2023-05-23T16:16:27.966Z,50.20
2023-05-23T16:18:55.072Z,49.90
2023-05-23T16:21:22.164Z,49.60
2023-05-23T16:23:49.837Z,49.40
2023-05-23T16:26:19.000Z,49.40
2023-05-23T16:28:48.586Z,48.80
2023-05-23T16:31:16.832Z,48.70
2023-05-23T16:33:44.862Z,48.40
2023-05-23T16:36:12.112Z,48.40
2023-05-23T16:38:39.149Z,48.10
2023-05-23T16:41:06.097Z,48.30
2023-05-23T16:43:34.695Z,48.50
2023-05-23T16:46:02.119Z,48.30
2023-05-23T16:48:29.397Z,48.10
2023-05-23T16:50:58.064Z,47.80
2023-05-23T16:53:25.161Z,47.20
2023-05-23T16:55:52.617Z,46.70
2023-05-23T16:58:21.207Z,46.50
2023-05-23T17:00:48.894Z,46.30
2023-05-23T17:03:16.376Z,46.80
2023-05-23T17:05:43.737Z,46.00
2023-05-23T17:08:11.009Z,46.10
2023-05-23T17:10:38.159Z,46.00
2023-05-23T17:13:05.184Z,46.20
2023-05-23T17:15:32.146Z,46.80
2023-05-23T17:17:59.128Z,46.40
2023-05-23T17:20:27.213Z,46.40
2023-05-23T17:22:55.068Z,46.40
2023-05-23T17:25:22.169Z,46.20
2023-05-23T17:27:49.390Z,46.20
2023-05-23T17:30:18.669Z,46.30
2023-05-23T17:32:47.176Z,46.20
2023-05-23T17:35:14.271Z,46.20
2023-05-23T17:37:43.549Z,46.20
2023-05-23T17:40:15.866Z,46.20
2023-05-23T17:42:43.318Z,46.30
2023-05-23T17:45:11.072Z,46.20
2023-05-23T17:47:38.047Z,46.20
2023-05-23T17:50:07.402Z,46.10
2023-05-23T17:52:34.975Z,46.00
2023-05-23T17:55:01.914Z,46.20
2023-05-23T17:57:31.036Z,46.00
2023-05-23T17:59:59.672Z,45.90
2023-05-23T18:02:27.637Z,46.00
2023-05-23T18:04:55.426Z,46.10
2023-05-23T18:07:22.461Z,46.20
2023-05-23T18:09:49.530Z,46.00
2023-05-23T18:12:16.752Z,46.10
2023-05-23T18:14:44.035Z,46.20
2023-05-23T18:17:11.239Z,46.10
2023-05-23T18:19:38.327Z,45.90
2023-05-23T18:22:05.595Z,45.80
2023-05-23T18:24:32.496Z,45.60
2023-05-23T18:27:00.344Z,45.60
2023-05-23T18:29:27.518Z,45.60
2023-05-23T18:31:54.545Z,45.80
2023-05-23T18:34:22.576Z,45.70
2023-05-23T18:36:49.539Z,45.90
2023-05-23T18:39:16.950Z,45.90
2023-05-23T18:41:43.907Z,46.00
2023-05-23T18:44:11.103Z,46.10
2023-05-23T18:46:38.191Z,46.20
2023-05-23T18:49:05.414Z,46.30
2023-05-23T18:51:33.472Z,46.40
2023-05-23T18:54:00.593Z,46.40
2023-05-23T18:56:27.542Z,46.30
2023-05-23T18:58:54.847Z,46.50
2023-05-23T19:01:22.118Z,46.60
2023-05-23T19:03:49.283Z,46.30
2023-05-23T19:06:16.587Z,46.30
2023-05-23T19:08:43.683Z,46.20
2023-05-23T19:11:10.877Z,46.20
2023-05-23T19:13:38.021Z,46.10
2023-05-23T19:16:05.407Z,46.30
2023-05-23T19:18:32.480Z,46.50
2023-05-23T19:20:59.660Z,46.40
2023-05-23T19:23:28.089Z,46.70
2023-05-23T19:25:55.158Z,46.70
2023-05-23T19:28:22.295Z,46.80
2023-05-23T19:30:49.412Z,47.00
2023-05-23T19:33:18.303Z,46.90
2023-05-23T19:35:45.340Z,47.00
2023-05-23T19:38:12.336Z,47.00
2023-05-23T19:40:39.410Z,47.10
2023-05-23T19:43:06.524Z,47.10
2023-05-23T19:45:33.439Z,47.20
2023-05-23T19:48:01.745Z,47.40
2023-05-23T19:50:29.057Z,47.40
2023-05-23T19:52:55.954Z,48.20
2023-05-23T19:55:22.989Z,47.80
2023-05-23T19:57:50.107Z,48.00
2023-05-23T20:00:17.548Z,48.10
2023-05-23T20:02:45.145Z,48.20
2023-05-23T20:05:12.150Z,48.30
2023-05-23T20:07:39.909Z,48.40
2023-05-23T20:10:07.410Z,49.00
2023-05-23T20:12:34.729Z,48.50
2023-05-23T20:15:02.329Z,48.50
2023-05-23T20:17:30.009Z,48.70
2023-05-23T20:19:57.145Z,48.60
2023-05-23T20:22:24.061Z,48.60
2023-05-23T20:24:51.194Z,48.70
2023-05-23T20:27:18.118Z,48.80
2023-05-23T20:29:45.104Z,49.00
2023-05-23T20:32:12.014Z,49.20
2023-05-23T20:34:38.976Z,49.20
2023-05-23T20:37:05.922Z,49.30
2023-05-23T20:39:32.835Z,49.40
2023-05-23T20:41:59.830Z,49.60
2023-05-23T20:44:27.072Z,49.60
2023-05-23T20:46:56.975Z,49.70
2023-05-23T20:49:24.867Z,49.80
2023-05-23T20:51:51.816Z,49.90
2023-05-23T20:54:19.080Z,49.90
2023-05-23T20:56:46.352Z,50.10
2023-05-23T20:59:13.330Z,50.00
2023-05-23T21:01:40.360Z,50.00
2023-05-23T21:04:07.404Z,50.00
2023-05-23T21:06:34.298Z,50.00
2023-05-23T21:09:01.153Z,50.10
2023-05-23T21:11:28.232Z,50.10
2023-05-23T21:13:55.159Z,50.10
2023-05-23T21:16:22.083Z,50.30
2023-05-23T21:18:49.150Z,50.60
2023-05-23T21:21:16.174Z,50.40
2023-05-23T21:23:43.162Z,50.50
2023-05-23T21:26:10.090Z,50.60
2023-05-23T21:28:36.958Z,50.70
2023-05-23T21:31:04.190Z,50.80
2023-05-23T21:33:31.137Z,51.00
2023-05-23T21:36:00.081Z,51.00
2023-05-23T21:38:29.438Z,51.20
2023-05-23T21:40:56.329Z,51.30
2023-05-23T21:43:23.176Z,51.40
2023-05-23T21:45:50.051Z,51.50
2023-05-23T21:48:17.019Z,51.60
2023-05-23T21:50:44.153Z,51.70
2023-05-23T21:53:11.082Z,51.80
2023-05-23T21:55:38.069Z,52.00
2023-05-23T21:58:04.984Z,52.00
2023-05-23T22:00:31.879Z,52.00
2023-05-23T22:02:58.775Z,52.10
2023-05-23T22:05:25.775Z,52.30
2023-05-23T22:07:52.676Z,52.40
2023-05-23T22:10:19.630Z,52.60
2023-05-23T22:12:46.671Z,52.70
2023-05-23T22:15:13.563Z,52.80
2023-05-23T22:17:43.716Z,53.00
2023-05-23T22:20:14.550Z,53.10
2023-05-23T22:22:41.620Z,53.00
2023-05-23T22:25:09.005Z,52.80
2023-05-23T22:27:35.895Z,52.80
2023-05-23T22:30:02.744Z,53.20
2023-05-23T22:32:29.636Z,53.30
2023-05-23T22:34:56.657Z,53.40
2023-05-23T22:37:23.541Z,53.50
2023-05-23T22:39:50.418Z,53.70
2023-05-23T22:42:17.291Z,53.80
2023-05-23T22:44:44.171Z,53.90
2023-05-23T22:47:13.728Z,54.00
2023-05-23T22:49:42.456Z,54.20
2023-05-23T22:52:09.735Z,54.30
2023-05-23T22:54:36.619Z,54.30
2023-05-23T22:57:03.750Z,54.50
2023-05-23T22:59:31.026Z,54.60
2023-05-23T23:01:58.010Z,54.80
2023-05-23T23:04:25.467Z,54.90
2023-05-23T23:06:53.797Z,55.10
2023-05-23T23:09:21.218Z,55.10
2023-05-23T23:11:48.114Z,55.20
2023-05-23T23:14:15.061Z,55.30
2023-05-23T23:16:42.668Z,55.40
2023-05-23T23:19:09.593Z,55.40
2023-05-23T23:21:37.621Z,55.40
2023-05-23T23:24:05.984Z,55.40
2023-05-23T23:26:32.833Z,55.50
2023-05-23T23:28:59.695Z,55.50
2023-05-23T23:31:26.637Z,55.50
2023-05-23T23:33:53.620Z,55.60
2023-05-23T23:36:20.908Z,55.80
2023-05-23T23:38:47.819Z,55.80
2023-05-23T23:41:14.736Z,56.00
2023-05-23T23:43:41.648Z,56.30
2023-05-23T23:46:08.562Z,56.20
2023-05-23T23:48:35.674Z,56.30
2023-05-23T23:51:02.601Z,56.40
2023-05-23T23:53:30.105Z,56.50
2023-05-23T23:55:57.060Z,56.60
2023-05-23T23:58:23.936Z,56.70
